Time;durP1;ratioP1;P1;durP2;ratioP2;P2;SDS_P1;SDS_P2;PMS_P1;PMS_P2;Temp;Humidity;BMP_temperature;BMP_pressure;BME280_temperature;BME280_humidity;BME280_pressure;Samples;Min_cycle;Max_cycle;Signal;HPM_P1;HPM_P2
2022/11/09 00:00:49;;;;;;;1.33;1.20;;;;;;;;;;8357918;28;20032;-63
2022/11/09 00:04:50;;;;;;;6.93;1.30;;;;;;;;;;8357951;28;20106;-63
2022/11/09 00:08:50;;;;;;;1.02;0.98;;;;;;;;;;8358713;28;20029;-62
2022/11/09 00:12:50;;;;;;;2.40;1.10;;;;;;;;;;8359055;28;20987;-62
2022/11/09 00:16:50;;;;;;;2.22;1.10;;;;;;;;;;8357459;28;20827;-62
2022/11/09 00:20:50;;;;;;;2.13;1.23;;;;;;;;;;8358350;28;20544;-62
2022/11/09 00:24:50;;;;;;;0.95;0.95;;;;;;;;;;8358034;28;20210;-62
2022/11/09 00:28:51;;;;;;;1.75;0.90;;;;;;;;;;8357417;28;20062;-62
2022/11/09 00:32:51;;;;;;;0.90;0.88;;;;;;;;;;8357480;28;20175;-62
2022/11/09 00:36:51;;;;;;;0.70;0.70;;;;;;;;;;8358677;28;20020;-63
2022/11/09 00:40:52;;;;;;;2.35;0.80;;;;;;;;;;8359106;28;20028;-62
2022/11/09 00:44:52;;;;;;;2.20;0.80;;;;;;;;;;8355934;28;20032;-63
2022/11/09 00:48:53;;;;;;;1.48;0.90;;;;;;;;;;8354484;28;20218;-63
2022/11/09 00:52:53;;;;;;;0.85;0.80;;;;;;;;;;8356430;28;20027;-63
2022/11/09 00:56:53;;;;;;;2.38;0.88;;;;;;;;;;8358244;28;20025;-62
2022/11/09 01:00:54;;;;;;;4.85;1.00;;;;;;;;;;8357294;28;20916;-62
2022/11/09 01:04:54;;;;;;;2.97;1.10;;;;;;;;;;8357173;28;20640;-63
2022/11/09 01:08:55;;;;;;;1.48;1.08;;;;;;;;;;8354527;28;20024;-62
2022/11/09 01:12:55;;;;;;;4.40;1.40;;;;;;;;;;8355734;28;20105;-62
2022/11/09 01:16:55;;;;;;;1.70;1.40;;;;;;;;;;8354318;28;20103;-62
2022/11/09 01:20:55;;;;;;;1.70;1.10;;;;;;;;;;8352901;28;20874;-61
2022/11/09 01:24:55;;;;;;;1.25;1.10;;;;;;;;;;8351689;28;20036;-62
2022/11/09 01:28:55;;;;;;;1.08;1.02;;;;;;;;;;8354841;28;20032;-62
2022/11/09 01:32:56;;;;;;;1.42;0.90;;;;;;;;;;8356996;28;20142;-62
2022/11/09 01:36:56;;;;;;;1.20;1.10;;;;;;;;;;8356281;28;20062;-63
2022/11/09 01:40:56;;;;;;;1.73;0.80;;;;;;;;;;8355843;28;20481;-62
2022/11/09 01:45:15;;;;;;;2.17;1.02;;;;;;;;;;8357633;28;20257;-62
2022/11/09 01:49:24;;;;;;;0.88;0.82;;;;;;;;;;8353497;28;20460;-62
2022/11/09 01:53:28;;;;;;;0.90;0.90;;;;;;;;;;8355584;28;20031;-63
2022/11/09 01:57:31;;;;;;;1.35;0.80;;;;;;;;;;8356574;28;20060;-62
2022/11/09 02:01:31;;;;;;;0.60;0.60;;;;;;;;;;8355071;28;20029;-62
2022/11/09 02:05:33;;;;;;;0.80;0.80;;;;;;;;;;8353896;28;20142;-64
2022/11/09 02:10:03;;;;;;;0.70;0.70;;;;;;;;;;8339479;28;20356;-62
2022/11/09 02:14:04;;;;;;;1.02;0.60;;;;;;;;;;8337885;28;20037;-63
2022/11/09 02:18:05;;;;;;;2.40;0.70;;;;;;;;;;8353180;28;20048;-62
2022/11/09 02:22:05;;;;;;;0.70;0.70;;;;;;;;;;8354043;28;20024;-64
2022/11/09 02:26:08;;;;;;;1.05;0.70;;;;;;;;;;8354847;28;20032;-62
2022/11/09 02:30:08;;;;;;;0.70;0.70;;;;;;;;;;8354403;28;20360;-63
2022/11/09 02:34:14;;;;;;;1.40;0.80;;;;;;;;;;8343001;28;20032;-62
2022/11/09 02:38:14;;;;;;;0.60;0.60;;;;;;;;;;8363770;28;20024;-62
2022/11/09 02:42:15;;;;;;;2.20;0.70;;;;;;;;;;8360621;28;20027;-63
2022/11/09 02:46:23;;;;;;;1.55;0.90;;;;;;;;;;8362250;28;20123;-63
2022/11/09 02:50:23;;;;;;;2.78;1.02;;;;;;;;;;8362518;28;20031;-63
2022/11/09 02:54:23;;;;;;;1.83;1.10;;;;;;;;;;8359994;28;20017;-63
2022/11/09 02:58:23;;;;;;;4.00;1.00;;;;;;;;;;8361926;28;20024;-64
2022/11/09 03:02:23;;;;;;;1.25;0.93;;;;;;;;;;8361711;28;20033;-63
2022/11/09 03:06:33;;;;;;;2.43;0.97;;;;;;;;;;8358951;28;20035;-62
2022/11/09 03:10:33;;;;;;;2.00;1.30;;;;;;;;;;8362811;28;20036;-62
2022/11/09 03:14:33;;;;;;;0.85;0.80;;;;;;;;;;8360042;28;20549;-63
2022/11/09 03:18:33;;;;;;;1.35;0.93;;;;;;;;;;8360788;28;20041;-63
2022/11/09 03:22:33;;;;;;;1.80;0.90;;;;;;;;;;8361129;28;20028;-63
2022/11/09 03:26:34;;;;;;;1.33;1.13;;;;;;;;;;8362520;28;20055;-63
2022/11/09 03:30:34;;;;;;;1.15;1.05;;;;;;;;;;8358233;28;20039;-64
2022/11/09 03:34:34;;;;;;;1.48;0.82;;;;;;;;;;8359978;28;20030;-63
2022/11/09 03:38:34;;;;;;;2.13;1.23;;;;;;;;;;8341134;28;20028;-63
2022/11/09 03:42:35;;;;;;;1.55;0.80;;;;;;;;;;8360152;28;20020;-63
2022/11/09 03:46:35;;;;;;;1.30;0.80;;;;;;;;;;8358676;28;20037;-63
2022/11/09 03:50:39;;;;;;;0.83;0.70;;;;;;;;;;8357496;28;20024;-63
2022/11/09 03:54:39;;;;;;;0.70;0.70;;;;;;;;;;8361846;28;20263;-63
2022/11/09 03:58:39;;;;;;;0.95;0.93;;;;;;;;;;8359339;28;20051;-64
2022/11/09 04:02:39;;;;;;;0.80;0.80;;;;;;;;;;8356704;28;20049;-63
2022/11/09 04:06:39;;;;;;;1.48;0.98;;;;;;;;;;8358120;28;20106;-62
2022/11/09 04:10:40;;;;;;;0.73;0.70;;;;;;;;;;8361111;28;20029;-63
2022/11/09 04:14:40;;;;;;;1.40;0.87;;;;;;;;;;8359579;28;20021;-63
2022/11/09 04:18:40;;;;;;;1.58;0.90;;;;;;;;;;8358863;28;20040;-63
2022/11/09 04:22:40;;;;;;;2.03;0.88;;;;;;;;;;8341903;28;20799;-63
2022/11/09 04:26:40;;;;;;;0.80;0.80;;;;;;;;;;8359681;28;20044;-63
2022/11/09 04:30:42;;;;;;;0.82;0.77;;;;;;;;;;8356952;28;20122;-63
2022/11/09 04:34:42;;;;;;;0.80;0.70;;;;;;;;;;8357366;28;20024;-63
2022/11/09 04:38:42;;;;;;;1.00;0.90;;;;;;;;;;8358112;28;20031;-62
2022/11/09 04:42:42;;;;;;;1.38;0.68;;;;;;;;;;8355754;28;20013;-63
2022/11/09 04:46:42;;;;;;;0.70;0.70;;;;;;;;;;8355474;28;20036;-63
2022/11/09 04:50:43;;;;;;;2.95;0.90;;;;;;;;;;8356704;28;20030;-64
2022/11/09 04:54:43;;;;;;;0.85;0.73;;;;;;;;;;8357835;28;20020;-62
2022/11/09 04:58:43;;;;;;;1.98;0.80;;;;;;;;;;8358384;28;20024;-63
2022/11/09 05:02:43;;;;;;;2.45;1.90;;;;;;;;;;8358309;28;20032;-63
2022/11/09 05:06:43;;;;;;;1.65;1.40;;;;;;;;;;8356256;28;20025;-63
2022/11/09 05:10:44;;;;;;;4.45;1.80;;;;;;;;;;8358197;28;20028;-63
2022/11/09 05:14:44;;;;;;;2.22;1.10;;;;;;;;;;8356027;28;20033;-63
2022/11/09 05:18:44;;;;;;;2.13;1.30;;;;;;;;;;8336463;28;20086;-62
2022/11/09 05:27:03;;;;;;;1.17;1.08;;;;;;;;;;8356602;28;20040;-63
2022/11/09 05:31:04;;;;;;;1.63;1.00;;;;;;;;;;8355423;28;20048;-63
2022/11/09 05:35:04;;;;;;;1.35;0.93;;;;;;;;;;8356685;28;20297;-63
2022/11/09 05:39:05;;;;;;;1.10;0.95;;;;;;;;;;8334460;28;20748;-62
2022/11/09 05:43:05;;;;;;;1.55;1.00;;;;;;;;;;8356306;28;20021;-62
2022/11/09 05:47:05;;;;;;;1.58;0.98;;;;;;;;;;8352772;28;20827;-63
2022/11/09 05:51:06;;;;;;;2.40;1.00;;;;;;;;;;8349089;28;20473;-63
2022/11/09 05:55:07;;;;;;;1.05;1.00;;;;;;;;;;8335473;28;20078;-63
2022/11/09 05:59:07;;;;;;;3.75;1.20;;;;;;;;;;8355463;28;20024;-64
2022/11/09 06:03:08;;;;;;;2.00;1.20;;;;;;;;;;8350977;28;20621;-63
2022/11/09 06:07:09;;;;;;;1.67;1.33;;;;;;;;;;8333027;28;20043;-62
2022/11/09 06:11:10;;;;;;;1.60;1.02;;;;;;;;;;8357159;28;20028;-64
2022/11/09 06:15:10;;;;;;;2.00;1.00;;;;;;;;;;8359447;28;20365;-63
2022/11/09 06:19:10;;;;;;;1.30;1.20;;;;;;;;;;8359742;28;20021;-64
2022/11/09 06:23:11;;;;;;;1.00;1.00;;;;;;;;;;8359617;28;20016;-63
2022/11/09 06:27:11;;;;;;;2.40;0.93;;;;;;;;;;8355062;28;20821;-63
2022/11/09 06:31:12;;;;;;;2.28;1.05;;;;;;;;;;8358013;28;20687;-62
2022/11/09 06:35:13;;;;;;;1.67;0.82;;;;;;;;;;8359755;28;20085;-63
2022/11/09 06:39:13;;;;;;;0.90;0.80;;;;;;;;;;8361369;28;20024;-62
2022/11/09 06:43:13;;;;;;;0.80;0.80;;;;;;;;;;8357443;28;20020;-63
2022/11/09 06:47:13;;;;;;;1.30;0.80;;;;;;;;;;8356569;28;20127;-63
2022/11/09 06:51:14;;;;;;;1.08;0.82;;;;;;;;;;8357776;28;20044;-63
2022/11/09 06:55:14;;;;;;;0.83;0.60;;;;;;;;;;8359621;28;20032;-63
2022/11/09 06:59:14;;;;;;;0.65;0.60;;;;;;;;;;8358843;28;20294;-63
2022/11/09 07:03:15;;;;;;;0.70;0.50;;;;;;;;;;8356170;28;20147;-64
2022/11/09 07:07:15;;;;;;;2.60;0.50;;;;;;;;;;8353509;28;20062;-63
2022/11/09 07:11:16;;;;;;;0.73;0.60;;;;;;;;;;8338982;28;20027;-62
2022/11/09 07:15:17;;;;;;;0.98;0.60;;;;;;;;;;8360404;28;20161;-63
2022/11/09 07:19:17;;;;;;;0.60;0.60;;;;;;;;;;8355079;28;20097;-64
2022/11/09 07:23:17;;;;;;;0.83;0.60;;;;;;;;;;8356753;28;20090;-63
2022/11/09 07:27:18;;;;;;;0.50;0.50;;;;;;;;;;8355729;28;21181;-63
2022/11/09 07:31:18;;;;;;;1.40;0.40;;;;;;;;;;8353589;28;20283;-63
2022/11/09 07:35:18;;;;;;;0.50;0.50;;;;;;;;;;8357077;28;20355;-63
2022/11/09 07:39:18;;;;;;;0.63;0.60;;;;;;;;;;8354878;28;20141;-63
2022/11/09 07:43:19;;;;;;;0.50;0.50;;;;;;;;;;8352064;28;20990;-63
2022/11/09 07:47:19;;;;;;;0.40;0.40;;;;;;;;;;8355208;28;20949;-63
2022/11/09 07:51:19;;;;;;;0.73;0.63;;;;;;;;;;8353958;28;20029;-63
2022/11/09 07:55:19;;;;;;;0.70;0.50;;;;;;;;;;8354535;28;20730;-62
2022/11/09 07:59:20;;;;;;;2.67;0.60;;;;;;;;;;8357316;28;20295;-63
2022/11/09 08:03:20;;;;;;;1.45;0.63;;;;;;;;;;8357477;28;20037;-63
2022/11/09 08:07:22;;;;;;;0.75;0.70;;;;;;;;;;8353750;28;20032;-63
2022/11/09 08:11:23;;;;;;;0.88;0.60;;;;;;;;;;8354530;28;20947;-63
2022/11/09 08:15:23;;;;;;;1.67;0.60;;;;;;;;;;8354341;28;20158;-63
2022/11/09 08:19:23;;;;;;;1.08;0.57;;;;;;;;;;8356492;28;20028;-63
2022/11/09 08:23:24;;;;;;;0.68;0.68;;;;;;;;;;8354392;28;20047;-63
2022/11/09 08:27:24;;;;;;;1.45;0.70;;;;;;;;;;8356160;28;20095;-63
2022/11/09 08:31:24;;;;;;;2.33;0.75;;;;;;;;;;8356452;28;20039;-64
2022/11/09 08:35:25;;;;;;;0.60;0.60;;;;;;;;;;8354913;28;20081;-63
2022/11/09 08:39:25;;;;;;;2.08;0.82;;;;;;;;;;8355101;28;20115;-63
2022/11/09 08:43:25;;;;;;;2.40;0.87;;;;;;;;;;8357006;28;20036;-63
2022/11/09 08:47:25;;;;;;;2.63;0.80;;;;;;;;;;8354650;28;20131;-62
2022/11/09 08:51:26;;;;;;;1.25;0.80;;;;;;;;;;8352957;28;20067;-63
2022/11/09 08:55:26;;;;;;;2.75;1.00;;;;;;;;;;8356296;28;20106;-63
2022/11/09 08:59:26;;;;;;;2.97;0.80;;;;;;;;;;8354227;28;20024;-64
2022/11/09 09:03:26;;;;;;;2.35;0.80;;;;;;;;;;8356300;28;20290;-64
2022/11/09 09:07:26;;;;;;;1.83;0.75;;;;;;;;;;8358732;28;20199;-63
2022/11/09 09:11:27;;;;;;;4.57;1.10;;;;;;;;;;8355361;28;20730;-62
2022/11/09 09:15:27;;;;;;;5.53;1.10;;;;;;;;;;8354984;28;20056;-63
2022/11/09 09:19:28;;;;;;;2.30;1.00;;;;;;;;;;8353653;28;20500;-63
2022/11/09 09:23:28;;;;;;;5.70;1.30;;;;;;;;;;8355467;28;20048;-63
2022/11/09 09:27:28;;;;;;;2.50;1.02;;;;;;;;;;8353733;28;20591;-63
2022/11/09 09:31:28;;;;;;;3.92;1.20;;;;;;;;;;8354936;28;20040;-63
2022/11/09 09:35:29;;;;;;;2.10;0.77;;;;;;;;;;8352593;28;20059;-63
2022/11/09 09:39:29;;;;;;;3.05;0.85;;;;;;;;;;8356036;28;20357;-63
2022/11/09 09:43:35;;;;;;;5.40;1.00;;;;;;;;;;8353421;28;20642;-62
2022/11/09 09:47:42;;;;;;;1.75;0.80;;;;;;;;;;8353792;28;20032;-63
2022/11/09 09:51:51;;;;;;;2.63;1.00;;;;;;;;;;8353287;28;20118;-63
2022/11/09 09:56:08;;;;;;;3.78;0.90;;;;;;;;;;8337498;28;20552;-63
2022/11/09 10:00:14;;;;;;;3.45;1.00;;;;;;;;;;8354557;28;20135;-63
2022/11/09 10:04:27;;;;;;;2.95;1.00;;;;;;;;;;8355317;28;20111;-62
2022/11/09 10:08:27;;;;;;;2.90;1.00;;;;;;;;;;8355949;28;20683;-65
2022/11/09 10:12:28;;;;;;;1.50;0.85;;;;;;;;;;8354782;28;20086;-63
2022/11/09 10:16:31;;;;;;;2.80;1.00;;;;;;;;;;8352100;28;20094;-63
2022/11/09 10:20:48;;;;;;;2.73;1.20;;;;;;;;;;8352443;28;20017;-63
2022/11/09 10:24:58;;;;;;;4.35;0.90;;;;;;;;;;8356264;28;20676;-63
2022/11/09 10:29:00;;;;;;;2.10;0.90;;;;;;;;;;8353110;28;20028;-64
2022/11/09 10:33:09;;;;;;;1.75;0.98;;;;;;;;;;8352965;28;20072;-62
2022/11/09 10:37:13;;;;;;;2.80;1.00;;;;;;;;;;8353398;28;20028;-63
2022/11/09 10:41:13;;;;;;;2.05;1.08;;;;;;;;;;8351511;28;20530;-63
2022/11/09 10:45:24;;;;;;;2.83;0.80;;;;;;;;;;8353079;28;20028;-63
2022/11/09 10:49:24;;;;;;;3.67;1.10;;;;;;;;;;8354524;28;20056;-63
2022/11/09 10:53:25;;;;;;;3.88;1.13;;;;;;;;;;8356050;28;20025;-63
2022/11/09 10:57:26;;;;;;;1.95;1.20;;;;;;;;;;8359986;28;20043;-62
2022/11/09 11:01:34;;;;;;;2.28;1.08;;;;;;;;;;8360241;28;21009;-63
2022/11/09 11:05:35;;;;;;;2.72;0.90;;;;;;;;;;8357535;28;20021;-63
2022/11/09 11:09:35;;;;;;;4.25;1.20;;;;;;;;;;8359070;28;20868;-63
2022/11/09 11:13:35;;;;;;;5.55;0.93;;;;;;;;;;8360449;28;20071;-63
2022/11/09 11:17:36;;;;;;;4.38;1.08;;;;;;;;;;8356257;28;20068;-63
2022/11/09 11:21:36;;;;;;;5.65;1.15;;;;;;;;;;8357627;28;20829;-63
2022/11/09 11:25:55;;;;;;;2.80;0.80;;;;;;;;;;8357281;28;20050;-63
2022/11/09 11:30:05;;;;;;;3.28;1.00;;;;;;;;;;8360537;28;20047;-62
2022/11/09 11:34:12;;;;;;;4.55;1.02;;;;;;;;;;8359102;28;20051;-63
2022/11/09 11:38:15;;;;;;;4.68;1.10;;;;;;;;;;8357601;28;20145;-63
2022/11/09 11:42:34;;;;;;;2.47;1.07;;;;;;;;;;8357985;28;20413;-63
2022/11/09 11:46:34;;;;;;;2.03;1.05;;;;;;;;;;8356400;28;20036;-63
2022/11/09 11:50:42;;;;;;;3.90;1.17;;;;;;;;;;8358669;28;20277;-63
2022/11/09 11:54:45;;;;;;;5.60;1.05;;;;;;;;;;8358456;28;20114;-63
2022/11/09 11:58:45;;;;;;;3.43;1.07;;;;;;;;;;8360669;28;20025;-62
2022/11/09 12:02:55;;;;;;;2.90;0.90;;;;;;;;;;8355965;28;20063;-63
2022/11/09 12:07:13;;;;;;;4.07;1.10;;;;;;;;;;8356679;28;20028;-63
2022/11/09 12:11:16;;;;;;;3.42;1.00;;;;;;;;;;8355660;28;20555;-63
2022/11/09 12:15:16;;;;;;;3.27;1.03;;;;;;;;;;8356099;28;20511;-63
2022/11/09 12:19:28;;;;;;;3.05;0.80;;;;;;;;;;8355955;28;20059;-63
2022/11/09 12:23:49;;;;;;;5.70;1.00;;;;;;;;;;8357180;28;20100;-64
2022/11/09 12:27:59;;;;;;;2.97;1.00;;;;;;;;;;8319576;28;20665;-63
2022/11/09 12:32:14;;;;;;;3.45;0.98;;;;;;;;;;8357085;28;20067;-62
2022/11/09 12:36:20;;;;;;;6.40;0.90;;;;;;;;;;8355651;28;20052;-63
2022/11/09 12:40:22;;;;;;;2.35;1.10;;;;;;;;;;8356926;28;20604;-63
2022/11/09 12:44:27;;;;;;;1.88;0.88;;;;;;;;;;8355320;28;20020;-63
2022/11/09 12:48:29;;;;;;;4.75;1.25;;;;;;;;;;8355148;28;20040;-63
2022/11/09 12:52:30;;;;;;;5.60;1.00;;;;;;;;;;8355917;28;20102;-64
2022/11/09 12:56:33;;;;;;;3.33;0.98;;;;;;;;;;8355971;28;20090;-63
2022/11/09 13:00:33;;;;;;;3.90;1.10;;;;;;;;;;8356243;28;20041;-64
2022/11/09 13:04:33;;;;;;;2.97;1.20;;;;;;;;;;8353769;28;20029;-63
2022/11/09 13:08:34;;;;;;;2.72;0.95;;;;;;;;;;8354033;28;20070;-63
2022/11/09 13:12:38;;;;;;;5.80;0.98;;;;;;;;;;8351851;28;20024;-64
2022/11/09 13:16:38;;;;;;;3.30;1.10;;;;;;;;;;8350973;28;20514;-63
2022/11/09 13:20:39;;;;;;;2.85;1.20;;;;;;;;;;8353510;28;20213;-63
2022/11/09 13:24:50;;;;;;;4.03;1.20;;;;;;;;;;8352677;28;20016;-62
2022/11/09 13:29:09;;;;;;;2.50;1.10;;;;;;;;;;8330908;28;20032;-63
2022/11/09 13:33:18;;;;;;;4.22;1.17;;;;;;;;;;8345841;28;20908;-62
2022/11/09 13:37:31;;;;;;;4.80;1.10;;;;;;;;;;8349695;28;20024;-63
2022/11/09 13:41:31;;;;;;;3.83;1.30;;;;;;;;;;8333029;28;20767;-63
2022/11/09 13:45:42;;;;;;;3.25;1.30;;;;;;;;;;8346377;28;20062;-62
2022/11/09 13:49:44;;;;;;;10.27;1.20;;;;;;;;;;8351854;28;20035;-63
2022/11/09 13:53:56;;;;;;;5.05;1.30;;;;;;;;;;8350119;28;20035;-63
2022/11/09 13:58:22;;;;;;;4.00;1.10;;;;;;;;;;8349688;28;20029;-63
2022/11/09 14:02:25;;;;;;;3.78;1.30;;;;;;;;;;8346934;28;20028;-63
2022/11/09 14:06:29;;;;;;;2.90;1.10;;;;;;;;;;8326923;28;20091;-62
2022/11/09 14:10:38;;;;;;;3.72;1.02;;;;;;;;;;8351438;28;20046;-62
2022/11/09 14:14:47;;;;;;;3.80;1.48;;;;;;;;;;8348426;28;20017;-62
2022/11/09 14:18:55;;;;;;;4.55;1.10;;;;;;;;;;8348075;28;20159;-62
2022/11/09 14:22:55;;;;;;;1.52;1.00;;;;;;;;;;8347074;28;20532;-64
2022/11/09 14:27:08;;;;;;;4.50;1.20;;;;;;;;;;8349916;28;20024;-63
2022/11/09 14:31:25;;;;;;;5.65;1.48;;;;;;;;;;8356528;28;20099;-63
2022/11/09 14:35:34;;;;;;;4.15;1.30;;;;;;;;;;8352670;28;20287;-63
2022/11/09 14:39:36;;;;;;;2.10;0.98;;;;;;;;;;8354878;28;20348;-62
2022/11/09 14:43:43;;;;;;;3.70;1.30;;;;;;;;;;8359087;28;20020;-63
2022/11/09 14:47:44;;;;;;;3.95;1.40;;;;;;;;;;8352382;28;20160;-62
2022/11/09 14:51:47;;;;;;;2.22;1.00;;;;;;;;;;8353761;28;20149;-63
2022/11/09 14:55:48;;;;;;;3.65;1.27;;;;;;;;;;8355040;28;20031;-62
2022/11/09 14:59:48;;;;;;;6.43;1.38;;;;;;;;;;8356141;28;20123;-63
2022/11/09 15:04:04;;;;;;;3.58;1.25;;;;;;;;;;8355810;28;20043;-62
2022/11/09 15:08:12;;;;;;;2.42;0.90;;;;;;;;;;8355890;28;20032;-63
2022/11/09 15:12:13;;;;;;;2.92;1.00;;;;;;;;;;8356121;28;20089;-63
2022/11/09 15:16:19;;;;;;;4.90;1.52;;;;;;;;;;8355878;28;20483;-62
2022/11/09 15:20:19;;;;;;;3.65;0.90;;;;;;;;;;8354806;28;20029;-63
2022/11/09 15:24:20;;;;;;;6.72;1.13;;;;;;;;;;8353320;28;20052;-62
2022/11/09 15:28:24;;;;;;;2.08;1.00;;;;;;;;;;8332438;28;20042;-62
2022/11/09 15:32:25;;;;;;;3.03;1.05;;;;;;;;;;8354525;28;20029;-62
2022/11/09 15:36:27;;;;;;;3.20;1.13;;;;;;;;;;8355932;28;20026;-62
2022/11/09 15:40:27;;;;;;;2.83;0.95;;;;;;;;;;8353246;28;20099;-62
2022/11/09 15:44:27;;;;;;;4.13;1.33;;;;;;;;;;8355037;28;20611;-62
2022/11/09 15:48:28;;;;;;;1.75;0.82;;;;;;;;;;8353541;28;20728;-62
2022/11/09 15:52:28;;;;;;;2.42;1.35;;;;;;;;;;8353482;28;20031;-63
2022/11/09 15:56:28;;;;;;;2.72;0.93;;;;;;;;;;8345162;28;20028;-62
2022/11/09 16:00:28;;;;;;;5.57;1.13;;;;;;;;;;8355442;28;20073;-62
2022/11/09 16:04:28;;;;;;;2.63;1.30;;;;;;;;;;8352714;28;20357;-62
2022/11/09 16:08:29;;;;;;;4.25;1.48;;;;;;;;;;8352492;28;20308;-62
2022/11/09 16:12:29;;;;;;;2.75;1.30;;;;;;;;;;8355161;28;20382;-62
2022/11/09 16:16:29;;;;;;;2.37;1.10;;;;;;;;;;8355396;28;20044;-62
2022/11/09 16:20:29;;;;;;;2.92;1.60;;;;;;;;;;8354445;28;20286;-62
2022/11/09 16:24:30;;;;;;;3.10;1.35;;;;;;;;;;8353802;28;20017;-62
2022/11/09 16:28:30;;;;;;;3.85;1.42;;;;;;;;;;8348943;28;20033;-63
2022/11/09 16:32:30;;;;;;;2.50;1.10;;;;;;;;;;8354996;28;20584;-62
2022/11/09 16:36:31;;;;;;;3.33;1.20;;;;;;;;;;8355366;28;20024;-63
2022/11/09 16:40:31;;;;;;;5.95;1.30;;;;;;;;;;8355451;28;20091;-62
2022/11/09 16:44:33;;;;;;;2.50;1.00;;;;;;;;;;8350608;28;20485;-62
2022/11/09 16:48:33;;;;;;;1.67;1.10;;;;;;;;;;8345984;28;20593;-62
2022/11/09 16:52:33;;;;;;;1.80;0.95;;;;;;;;;;8344321;28;20525;-62
2022/11/09 16:56:34;;;;;;;3.50;1.37;;;;;;;;;;8340948;28;20338;-63
2022/11/09 17:00:34;;;;;;;2.78;1.13;;;;;;;;;;8317461;28;20437;-63
2022/11/09 17:04:34;;;;;;;3.83;1.30;;;;;;;;;;8334239;28;20234;-63
2022/11/09 17:08:34;;;;;;;3.40;1.20;;;;;;;;;;8338066;28;20021;-62
2022/11/09 17:12:35;;;;;;;6.25;1.48;;;;;;;;;;8343614;28;20131;-62
2022/11/09 17:16:35;;;;;;;6.65;1.70;;;;;;;;;;8339419;28;20103;-62
2022/11/09 17:20:48;;;;;;;4.05;1.60;;;;;;;;;;8317766;28;20709;-62
2022/11/09 17:24:48;;;;;;;10.03;1.70;;;;;;;;;;8341704;28;20048;-63
2022/11/09 17:28:49;;;;;;;3.58;1.20;;;;;;;;;;8342394;28;20487;-63
2022/11/09 17:32:49;;;;;;;1.88;1.10;;;;;;;;;;8346092;28;20127;-62
2022/11/09 17:36:50;;;;;;;2.40;1.10;;;;;;;;;;8344967;28;20040;-62
2022/11/09 17:40:50;;;;;;;3.03;1.15;;;;;;;;;;8346083;28;20020;-62
2022/11/09 17:44:50;;;;;;;5.87;1.27;;;;;;;;;;8329261;28;20035;-62
2022/11/09 17:48:50;;;;;;;3.80;1.40;;;;;;;;;;8331229;28;20791;-62
2022/11/09 17:52:51;;;;;;;1.88;1.00;;;;;;;;;;8339867;28;20027;-63
2022/11/09 17:56:51;;;;;;;3.53;1.70;;;;;;;;;;8345208;28;20036;-62
2022/11/09 18:00:51;;;;;;;3.33;1.45;;;;;;;;;;8342989;28;20042;-63
2022/11/09 18:04:52;;;;;;;8.05;2.00;;;;;;;;;;8342301;28;20059;-63
2022/11/09 18:08:52;;;;;;;3.70;1.40;;;;;;;;;;8344643;28;20229;-62
2022/11/09 18:12:52;;;;;;;3.15;1.60;;;;;;;;;;8341737;28;20032;-62
2022/11/09 18:16:52;;;;;;;4.35;1.50;;;;;;;;;;8341391;28;20044;-62
2022/11/09 18:20:53;;;;;;;5.63;1.58;;;;;;;;;;8342402;28;20139;-63
2022/11/09 18:24:53;;;;;;;7.18;2.20;;;;;;;;;;8344113;28;20021;-63
2022/11/09 18:28:56;;;;;;;4.90;1.60;;;;;;;;;;8343825;28;20032;-63
2022/11/09 18:32:56;;;;;;;4.18;1.55;;;;;;;;;;8341264;28;20063;-62
2022/11/09 18:36:56;;;;;;;5.97;1.90;;;;;;;;;;8339126;28;20115;-62
2022/11/09 18:41:02;;;;;;;5.10;1.65;;;;;;;;;;8343367;28;20183;-62
2022/11/09 18:45:03;;;;;;;7.32;1.65;;;;;;;;;;8343718;28;20021;-63
2022/11/09 18:49:04;;;;;;;5.00;1.70;;;;;;;;;;8344115;28;20031;-62
2022/11/09 18:53:04;;;;;;;7.07;1.83;;;;;;;;;;8335868;28;20090;-62
2022/11/09 18:57:04;;;;;;;5.80;1.92;;;;;;;;;;8337113;28;20028;-62
2022/11/09 19:01:06;;;;;;;5.30;1.83;;;;;;;;;;8342593;28;20838;-62
2022/11/09 19:05:07;;;;;;;3.67;1.50;;;;;;;;;;8343628;28;20035;-64
2022/11/09 19:09:33;;;;;;;7.18;1.85;;;;;;;;;;8345580;28;20036;-62
2022/11/09 19:13:30;;;;;;;7.38;2.00;;;;;;;;;;8343204;28;20838;-62
2022/11/09 19:17:30;;;;;;;4.97;2.10;;;;;;;;;;8349835;28;20426;-62
2022/11/09 19:21:34;;;;;;;6.47;1.73;;;;;;;;;;8345853;28;20671;-62
2022/11/09 19:25:34;;;;;;;6.67;2.00;;;;;;;;;;8347309;28;20024;-62
2022/11/09 19:29:34;;;;;;;6.78;2.05;;;;;;;;;;8340459;28;20034;-62
2022/11/09 19:33:34;;;;;;;5.22;1.85;;;;;;;;;;8344533;28;20098;-62
2022/11/09 19:37:34;;;;;;;4.55;2.00;;;;;;;;;;8344916;28;20610;-63
2022/11/09 19:41:35;;;;;;;3.40;1.75;;;;;;;;;;8344759;28;20512;-62
2022/11/09 19:45:40;;;;;;;7.63;2.10;;;;;;;;;;8345262;28;20028;-63
2022/11/09 19:49:41;;;;;;;7.32;2.50;;;;;;;;;;8345984;28;20381;-63
2022/11/09 19:53:41;;;;;;;9.15;2.92;;;;;;;;;;8346227;28;20040;-62
2022/11/09 19:57:41;;;;;;;6.50;1.85;;;;;;;;;;8347515;28;20033;-63
2022/11/09 20:01:42;;;;;;;8.18;2.03;;;;;;;;;;8326330;28;20032;-63
2022/11/09 20:05:42;;;;;;;5.60;2.33;;;;;;;;;;8342823;28;20032;-63
2022/11/09 20:09:42;;;;;;;9.65;2.42;;;;;;;;;;8344546;28;20289;-63
2022/11/09 20:13:42;;;;;;;7.63;2.10;;;;;;;;;;8345619;28;20491;-63
2022/11/09 20:17:42;;;;;;;10.45;1.92;;;;;;;;;;8319591;28;20341;-63
2022/11/09 20:21:43;;;;;;;10.07;1.85;;;;;;;;;;8340655;28;20017;-62
2022/11/09 20:25:43;;;;;;;6.43;1.77;;;;;;;;;;8341713;28;20236;-63
2022/11/09 20:29:44;;;;;;;6.88;1.75;;;;;;;;;;8343945;28;20390;-63
2022/11/09 20:33:44;;;;;;;5.72;2.10;;;;;;;;;;8340894;28;20044;-62
2022/11/09 20:37:44;;;;;;;7.63;2.20;;;;;;;;;;8343498;28;20232;-63
2022/11/09 20:41:44;;;;;;;7.15;1.88;;;;;;;;;;8342030;28;20017;-62
2022/11/09 20:45:45;;;;;;;6.25;2.08;;;;;;;;;;8343219;28;20032;-63
2022/11/09 20:49:47;;;;;;;4.88;1.58;;;;;;;;;;8344353;28;20486;-63
2022/11/09 20:53:49;;;;;;;6.80;2.28;;;;;;;;;;8342780;28;20035;-63
2022/11/09 20:57:49;;;;;;;8.85;2.30;;;;;;;;;;8333695;28;20033;-63
2022/11/09 21:01:49;;;;;;;11.15;3.08;;;;;;;;;;8341522;28;20574;-62
2022/11/09 21:05:53;;;;;;;7.97;2.40;;;;;;;;;;8341341;28;20124;-62
2022/11/09 21:09:53;;;;;;;6.43;2.70;;;;;;;;;;8346494;28;20047;-62
2022/11/09 21:13:54;;;;;;;7.88;2.58;;;;;;;;;;8345555;28;20028;-62
2022/11/09 21:17:54;;;;;;;11.73;3.15;;;;;;;;;;8345292;28;20040;-62
2022/11/09 21:21:56;;;;;;;8.63;2.15;;;;;;;;;;8343369;28;20016;-62
2022/11/09 21:30:18;;;;;;;7.20;2.38;;;;;;;;;;8342251;28;20065;-63
2022/11/09 21:34:18;;;;;;;6.00;1.77;;;;;;;;;;8342932;28;20033;-62
2022/11/09 21:38:18;;;;;;;7.90;1.95;;;;;;;;;;8341302;28;20143;-62
2022/11/09 21:42:18;;;;;;;6.35;2.08;;;;;;;;;;8342153;28;20729;-62
2022/11/09 21:46:18;;;;;;;5.35;1.75;;;;;;;;;;8341817;28;20032;-62
2022/11/09 21:50:19;;;;;;;7.83;2.03;;;;;;;;;;8342530;28;20031;-62
2022/11/09 21:54:19;;;;;;;7.05;2.08;;;;;;;;;;8342316;28;20355;-62
2022/11/09 21:58:20;;;;;;;8.20;1.80;;;;;;;;;;8343593;28;20036;-62
2022/11/09 22:02:20;;;;;;;9.73;1.98;;;;;;;;;;8345087;28;20032;-62
2022/11/09 22:06:20;;;;;;;10.63;2.35;;;;;;;;;;8325678;28;20032;-62
2022/11/09 22:10:20;;;;;;;6.15;1.90;;;;;;;;;;8343285;28;20486;-61
2022/11/09 22:22:58;;;;;;;6.45;1.40;;;;;;;;;;8342924;28;20098;-62
2022/11/09 22:26:58;;;;;;;9.05;1.73;;;;;;;;;;8342861;28;20025;-62
2022/11/09 22:30:59;;;;;;;6.63;1.80;;;;;;;;;;8340311;28;20037;-62
2022/11/09 22:35:00;;;;;;;7.90;1.60;;;;;;;;;;8339776;28;20063;-61
2022/11/09 22:39:00;;;;;;;7.60;2.03;;;;;;;;;;8343608;28;20028;-62
2022/11/09 22:43:00;;;;;;;9.43;1.80;;;;;;;;;;8343010;28;20040;-62
2022/11/09 22:47:00;;;;;;;5.75;1.80;;;;;;;;;;8344860;28;20045;-62
2022/11/09 22:51:01;;;;;;;6.78;1.75;;;;;;;;;;8350159;28;20056;-62
2022/11/09 22:55:01;;;;;;;6.22;1.80;;;;;;;;;;8350579;28;20100;-62
2022/11/09 22:59:01;;;;;;;10.30;2.65;;;;;;;;;;8352432;28;20059;-62
2022/11/09 23:03:02;;;;;;;10.45;2.88;;;;;;;;;;8349551;28;20075;-62
2022/11/09 23:07:02;;;;;;;7.63;2.53;;;;;;;;;;8349934;28;20032;-61
2022/11/09 23:11:03;;;;;;;7.10;2.25;;;;;;;;;;8351856;28;20035;-62
2022/11/09 23:15:04;;;;;;;7.07;2.00;;;;;;;;;;8350322;28;20249;-62
2022/11/09 23:19:04;;;;;;;6.82;1.83;;;;;;;;;;8349583;28;20060;-62
2022/11/09 23:23:04;;;;;;;7.22;1.70;;;;;;;;;;8350742;28;20103;-62
2022/11/09 23:27:04;;;;;;;8.30;2.15;;;;;;;;;;8349978;28;20052;-62
2022/11/09 23:31:06;;;;;;;7.38;1.90;;;;;;;;;;8348716;28;20036;-62
2022/11/09 23:35:07;;;;;;;11.18;2.53;;;;;;;;;;8345691;28;20107;-62
2022/11/09 23:39:07;;;;;;;7.50;1.67;;;;;;;;;;8348018;28;20067;-62
2022/11/09 23:43:08;;;;;;;9.57;2.00;;;;;;;;;;8348425;28;20777;-62
2022/11/09 23:47:08;;;;;;;7.43;2.13;;;;;;;;;;8349556;28;20032;-62
2022/11/09 23:51:09;;;;;;;8.02;1.80;;;;;;;;;;8351244;28;20147;-62
2022/11/09 23:55:09;;;;;;;5.00;1.65;;;;;;;;;;8332307;28;20905;-62
2022/11/09 23:59:09;;;;;;;10.48;1.90;;;;;;;;;;8347147;28;20097;-62
